Time;durP1;ratioP1;P1;durP2;ratioP2;P2;SDS_P1;SDS_P2;PMS_P1;PMS_P2;Temp;Humidity;BMP_temperature;BMP_pressure;BME280_temperature;BME280_humidity;BME280_pressure;Samples;Min_cycle;Max_cycle;Signal;HPM_P1;HPM_P2
2022/01/31 00:00:08;;;;;;;19.95;3.35;;;4.10;99.90;;;;;;5045417;28;20041;-69
2022/01/31 00:02:35;;;;;;;12.75;3.63;;;3.40;99.90;;;;;;5056054;28;20571;-69
2022/01/31 00:05:01;;;;;;;17.40;3.80;;;4.10;99.90;;;;;;5055751;28;20056;-69
2022/01/31 00:07:27;;;;;;;20.42;3.42;;;4.10;99.90;;;;;;5068523;28;20505;-69
2022/01/31 00:09:52;;;;;;;17.10;3.88;;;4.10;99.90;;;;;;5060637;28;20057;-69
2022/01/31 00:12:19;;;;;;;18.67;3.92;;;4.20;99.90;;;;;;5058348;28;20499;-69
2022/01/31 00:14:49;;;;;;;16.52;3.45;;;4.10;99.90;;;;;;5066832;28;20438;-69
2022/01/31 00:17:15;;;;;;;13.70;3.95;;;4.10;99.90;;;;;;5070911;28;20049;-69
2022/01/31 00:19:42;;;;;;;24.60;4.15;;;4.20;99.90;;;;;;5036714;28;20045;-69
2022/01/31 00:22:10;;;;;;;24.70;4.32;;;4.10;99.90;;;;;;5066000;28;20041;-67
2022/01/31 00:24:35;;;;;;;16.48;4.13;;;4.10;99.90;;;;;;5066910;28;20033;-67
2022/01/31 00:27:03;;;;;;;23.15;3.65;;;4.10;99.90;;;;;;5039512;28;20036;-67
2022/01/31 00:29:29;;;;;;;20.42;4.00;;;4.10;99.90;;;;;;5062972;28;20059;-69
2022/01/31 00:31:56;;;;;;;25.15;3.85;;;4.10;99.90;;;;;;5066227;28;20059;-69
2022/01/31 00:34:22;;;;;;;21.88;4.10;;;4.10;99.90;;;;;;5049013;28;20048;-67
2022/01/31 00:36:48;;;;;;;20.13;4.63;;;4.70;99.90;;;;;;5068276;28;20520;-67
2022/01/31 00:39:14;;;;;;;21.98;4.28;;;4.10;99.90;;;;;;5068765;28;20077;-67
2022/01/31 00:41:39;;;;;;;18.20;4.20;;;4.10;99.90;;;;;;5041256;28;20076;-66
2022/01/31 00:44:26;;;;;;;20.45;4.07;;;4.10;99.90;;;;;;5039903;28;20063;-67
2022/01/31 00:46:59;;;;;;;15.23;4.20;;;4.10;99.90;;;;;;5057438;28;20043;-67
2022/01/31 00:51:58;;;;;;;20.40;4.60;;;4.10;99.90;;;;;;5037084;28;20506;-67
2022/01/31 00:54:23;;;;;;;26.20;4.50;;;4.20;99.90;;;;;;5041368;28;20510;-67
2022/01/31 00:56:50;;;;;;;19.67;5.28;;;4.10;99.90;;;;;;5039433;28;20049;-67
2022/01/31 00:59:16;;;;;;;20.15;5.65;;;4.10;99.90;;;;;;5055135;28;20529;-67
2022/01/31 01:01:41;;;;;;;25.45;5.35;;;4.20;99.90;;;;;;5039590;28;20036;-67
2022/01/31 01:04:07;;;;;;;13.77;5.03;;;4.10;99.90;;;;;;5036391;28;20055;-67
2022/01/31 01:06:32;;;;;;;21.50;5.28;;;4.10;99.90;;;;;;5049801;28;20044;-67
2022/01/31 01:08:58;;;;;;;21.55;5.35;;;4.10;99.90;;;;;;5049315;28;20571;-67
2022/01/31 01:11:23;;;;;;;19.63;5.45;;;4.10;99.90;;;;;;5047951;28;20506;-67
2022/01/31 01:13:49;;;;;;;28.27;6.57;;;4.10;99.90;;;;;;5037222;28;20487;-67
2022/01/31 01:16:15;;;;;;;19.05;5.88;;;4.10;99.90;;;;;;5039501;28;20056;-67
2022/01/31 01:18:40;;;;;;;22.13;5.57;;;4.10;99.90;;;;;;5058663;28;20139;-67
2022/01/31 01:21:06;;;;;;;20.15;6.32;;;4.10;99.90;;;;;;5036418;28;20076;-67
2022/01/31 01:23:31;;;;;;;19.83;6.65;;;4.10;99.90;;;;;;5057658;28;20052;-67
2022/01/31 01:25:57;;;;;;;33.97;6.88;;;4.00;99.90;;;;;;5062956;28;20041;-67
2022/01/31 01:28:25;;;;;;;24.27;8.27;;;4.20;99.90;;;;;;5070550;28;20056;-67
2022/01/31 01:30:50;;;;;;;27.85;7.38;;;4.00;99.90;;;;;;5056211;28;20119;-69
2022/01/31 01:33:22;;;;;;;19.88;7.85;;;4.10;99.90;;;;;;5034777;28;20143;-69
2022/01/31 01:35:50;;;;;;;23.08;7.15;;;4.00;99.90;;;;;;5055014;28;20045;-67
2022/01/31 01:38:17;;;;;;;26.17;10.15;;;4.00;99.90;;;;;;5053772;28;20052;-67
2022/01/31 01:40:45;;;;;;;35.70;8.48;;;4.00;99.90;;;;;;5046561;28;20476;-67
2022/01/31 01:43:13;;;;;;;27.48;9.93;;;4.00;99.90;;;;;;5035645;28;20052;-67
2022/01/31 01:45:40;;;;;;;23.27;9.73;;;4.00;99.90;;;;;;5063746;28;20078;-67
2022/01/31 01:48:08;;;;;;;24.25;10.52;;;3.90;99.90;;;;;;5044087;28;20086;-67
2022/01/31 01:50:35;;;;;;;21.33;9.65;;;3.90;99.90;;;;;;5064683;28;20036;-67
2022/01/31 01:53:02;;;;;;;28.63;10.10;;;3.90;99.90;;;;;;5052748;28;20047;-67
2022/01/31 01:55:28;;;;;;;20.77;11.23;;;3.80;99.90;;;;;;5036394;28;20040;-68
2022/01/31 01:57:56;;;;;;;28.13;11.95;;;3.80;99.90;;;;;;5036655;28;20080;-67
2022/01/31 02:00:27;;;;;;;25.48;11.77;;;3.80;99.90;;;;;;5040054;28;20045;-67
2022/01/31 02:02:54;;;;;;;27.15;11.65;;;3.80;99.90;;;;;;5052420;28;20144;-67
2022/01/31 02:05:20;;;;;;;24.83;12.35;;;3.80;99.90;;;;;;5034869;28;20045;-67
2022/01/31 02:07:46;;;;;;;24.13;12.50;;;3.70;99.90;;;;;;5036026;28;20053;-67
2022/01/31 02:10:12;;;;;;;23.83;12.52;;;5.00;99.90;;;;;;5052866;28;20460;-68
2022/01/31 02:12:43;;;;;;;25.80;12.77;;;3.60;99.90;;;;;;5056980;28;20129;-68
2022/01/31 02:15:10;;;;;;;27.35;13.18;;;3.60;99.90;;;;;;5060985;28;20037;-68
2022/01/31 02:17:37;;;;;;;26.08;14.23;;;3.60;99.90;;;;;;5034799;28;20048;-68
2022/01/31 02:20:06;;;;;;;27.15;13.50;;;3.50;99.90;;;;;;5052122;28;20040;-67
2022/01/31 02:22:31;;;;;;;26.08;12.52;;;3.50;99.90;;;;;;5058696;28;20048;-68
2022/01/31 02:24:58;;;;;;;29.83;13.30;;;3.50;99.90;;;;;;5036145;28;20051;-67
2022/01/31 02:27:29;;;;;;;23.88;12.82;;;3.50;99.90;;;;;;5036450;28;20171;-68
2022/01/31 02:29:55;;;;;;;24.17;12.38;;;3.50;99.90;;;;;;5041764;28;20099;-67
2022/01/31 02:32:22;;;;;;;26.83;13.75;;;3.50;99.90;;;;;;5042513;28;20041;-68
2022/01/31 02:34:49;;;;;;;23.55;13.43;;;3.40;99.90;;;;;;5044553;28;20044;-68
2022/01/31 02:37:15;;;;;;;22.50;13.02;;;3.40;99.90;;;;;;5044386;28;20080;-68
2022/01/31 02:39:40;;;;;;;27.77;14.20;;;3.40;99.90;;;;;;5046592;28;20084;-67
2022/01/31 02:42:06;;;;;;;26.50;14.38;;;3.40;99.90;;;;;;5034218;28;20041;-68
2022/01/31 02:44:32;;;;;;;26.80;13.27;;;3.40;99.90;;;;;;5034175;28;20053;-67
2022/01/31 02:46:58;;;;;;;22.60;14.35;;;3.40;99.90;;;;;;5042579;28;20539;-67
2022/01/31 02:49:28;;;;;;;26.80;15.15;;;3.40;99.90;;;;;;5033098;28;20083;-68
2022/01/31 02:52:00;;;;;;;21.80;13.20;;;3.40;99.90;;;;;;5034138;28;20128;-68
2022/01/31 02:54:29;;;;;;;29.08;14.75;;;3.40;99.90;;;;;;5033294;28;20060;-67
2022/01/31 02:56:54;;;;;;;22.48;14.18;;;3.40;99.90;;;;;;5034507;28;20052;-67
2022/01/31 02:59:21;;;;;;;25.38;14.20;;;3.40;99.90;;;;;;5037447;28;20033;-68
2022/01/31 03:01:46;;;;;;;22.58;13.60;;;3.40;99.90;;;;;;5033399;28;20552;-67
2022/01/31 03:04:12;;;;;;;25.42;14.10;;;3.50;99.90;;;;;;5030196;28;20050;-68
2022/01/31 03:06:41;;;;;;;20.20;12.68;;;3.40;99.90;;;;;;5033821;28;20389;-67
2022/01/31 03:09:07;;;;;;;21.23;11.63;;;3.50;99.90;;;;;;5034895;28;20129;-67
2022/01/31 03:11:32;;;;;;;21.48;12.52;;;4.00;99.90;;;;;;5038388;28;20132;-67
2022/01/31 03:13:58;;;;;;;27.33;11.73;;;3.50;99.90;;;;;;5045893;28;20092;-67
2022/01/31 03:16:23;;;;;;;19.60;10.90;;;3.50;99.90;;;;;;5039359;28;20061;-68
2022/01/31 03:18:49;;;;;;;19.20;11.07;;;3.50;99.90;;;;;;5032908;28;20099;-68
2022/01/31 03:21:15;;;;;;;17.55;10.43;;;3.50;99.90;;;;;;5034481;28;20030;-68
2022/01/31 03:23:43;;;;;;;18.40;10.13;;;3.60;99.90;;;;;;5034766;28;20591;-68
2022/01/31 03:26:08;;;;;;;19.60;10.73;;;3.60;99.90;;;;;;5042783;28;20083;-68
2022/01/31 03:28:34;;;;;;;17.92;10.00;;;3.60;99.90;;;;;;5062506;28;20084;-68
2022/01/31 03:31:00;;;;;;;19.70;10.07;;;3.70;99.90;;;;;;5046535;28;20114;-67
2022/01/31 03:33:25;;;;;;;17.02;9.25;;;3.60;99.90;;;;;;5063149;28;20047;-68
2022/01/31 03:35:51;;;;;;;19.80;10.57;;;3.70;99.90;;;;;;5044795;28;20040;-68
2022/01/31 03:38:16;;;;;;;20.90;9.77;;;3.70;99.90;;;;;;5071196;28;20040;-68
2022/01/31 03:40:42;;;;;;;20.00;10.55;;;3.70;99.90;;;;;;5067636;28;20048;-68
2022/01/31 03:43:08;;;;;;;20.63;10.30;;;3.80;99.90;;;;;;5063286;28;20472;-68
2022/01/31 03:45:34;;;;;;;18.27;9.35;;;3.80;99.90;;;;;;5058158;28;20060;-67
2022/01/31 03:48:02;;;;;;;16.60;8.65;;;3.80;99.90;;;;;;5038403;28;20399;-68
2022/01/31 03:50:28;;;;;;;17.27;8.32;;;3.90;99.90;;;;;;5050637;28;20054;-67
2022/01/31 03:52:53;;;;;;;27.58;10.10;;;3.90;99.90;;;;;;5061969;28;20120;-68
2022/01/31 03:55:20;;;;;;;18.60;8.18;;;4.00;99.90;;;;;;5064940;28;20124;-68
2022/01/31 03:57:46;;;;;;;24.50;8.23;;;4.10;99.90;;;;;;5050849;28;20060;-67
2022/01/31 04:00:14;;;;;;;23.15;7.70;;;4.10;99.90;;;;;;5053012;28;20048;-68
2022/01/31 04:02:41;;;;;;;20.52;7.88;;;4.20;99.90;;;;;;5052954;28;20062;-67
2022/01/31 04:05:08;;;;;;;16.85;7.68;;;4.30;99.90;;;;;;5042212;28;20041;-68
2022/01/31 04:07:33;;;;;;;21.88;6.50;;;4.30;99.90;;;;;;5059611;28;20029;-68
2022/01/31 04:09:59;;;;;;;19.45;6.68;;;4.40;99.90;;;;;;5056067;28;20613;-68
2022/01/31 04:12:24;;;;;;;23.23;5.38;;;4.50;99.90;;;;;;5038038;28;20033;-68
2022/01/31 04:14:50;;;;;;;22.85;6.22;;;4.60;99.90;;;;;;5042020;28;20385;-67
2022/01/31 04:17:19;;;;;;;22.60;5.25;;;4.70;99.90;;;;;;5060229;28;20511;-68
2022/01/31 04:19:45;;;;;;;19.77;4.53;;;4.80;99.90;;;;;;5045685;28;20057;-67
2022/01/31 04:22:14;;;;;;;20.35;4.30;;;5.10;99.90;;;;;;5062913;28;20047;-68
2022/01/31 04:24:41;;;;;;;23.13;4.50;;;5.00;99.90;;;;;;5046985;28;20044;-68
2022/01/31 04:27:08;;;;;;;17.85;4.00;;;5.00;99.90;;;;;;5065486;28;20045;-68
2022/01/31 04:29:38;;;;;;;15.77;3.00;;;5.10;99.90;;;;;;5059144;28;20172;-68
2022/01/31 04:32:04;;;;;;;14.52;3.25;;;5.10;99.90;;;;;;5049433;28;20484;-68
2022/01/31 04:34:31;;;;;;;14.65;2.95;;;5.20;99.90;;;;;;5036722;28;20075;-68
2022/01/31 04:36:58;;;;;;;14.68;2.60;;;5.20;99.90;;;;;;5068978;28;20542;-67
2022/01/31 04:39:24;;;;;;;13.95;3.13;;;5.20;99.90;;;;;;5058232;28;20119;-68
2022/01/31 04:41:51;;;;;;;20.13;2.50;;;5.20;99.90;;;;;;5039792;28;20037;-68
2022/01/31 04:44:17;;;;;;;25.98;2.88;;;5.20;99.90;;;;;;5038205;28;20400;-68
2022/01/31 04:46:48;;;;;;;11.13;2.33;;;5.10;99.90;;;;;;5060843;28;20044;-68
2022/01/31 04:49:23;;;;;;;13.23;2.15;;;5.10;99.90;;;;;;5062417;28;20048;-68
2022/01/31 04:51:49;;;;;;;17.42;2.15;;;5.10;99.90;;;;;;5039621;28;20086;-68
2022/01/31 04:54:15;;;;;;;13.15;2.38;;;5.10;99.90;;;;;;5040009;28;20049;-68
2022/01/31 04:56:42;;;;;;;10.43;1.83;;;5.00;99.90;;;;;;5043225;28;20045;-68
2022/01/31 04:59:08;;;;;;;16.88;2.72;;;5.00;99.90;;;;;;5036939;28;20406;-68
2022/01/31 05:01:35;;;;;;;19.13;2.72;;;5.00;99.90;;;;;;5057995;28;20115;-68
2022/01/31 05:04:01;;;;;;;13.98;2.03;;;4.90;99.90;;;;;;5041524;28;20060;-68
2022/01/31 05:06:32;;;;;;;11.98;2.10;;;4.90;99.90;;;;;;5064351;28;20041;-68
2022/01/31 05:08:58;;;;;;;19.55;2.60;;;4.90;99.90;;;;;;5068420;28;20438;-68
2022/01/31 05:11:24;;;;;;;14.00;2.08;;;4.90;99.90;;;;;;5037175;28;20043;-68
2022/01/31 05:13:50;;;;;;;19.63;2.83;;;4.90;99.90;;;;;;5044305;28;20036;-68
2022/01/31 05:16:15;;;;;;;21.95;2.97;;;4.90;99.90;;;;;;5059487;28;20454;-68
2022/01/31 05:18:41;;;;;;;14.52;2.50;;;4.90;99.90;;;;;;5059810;28;20456;-69
2022/01/31 05:21:08;;;;;;;19.52;3.47;;;4.80;99.90;;;;;;5043016;28;20377;-68
2022/01/31 05:23:34;;;;;;;16.88;3.03;;;4.90;99.90;;;;;;5053650;28;20036;-68
2022/01/31 05:26:00;;;;;;;9.63;1.50;;;4.90;99.90;;;;;;5056644;28;20037;-68
2022/01/31 05:28:26;;;;;;;7.65;2.05;;;5.00;99.90;;;;;;5044283;28;20101;-68
2022/01/31 05:30:51;;;;;;;6.05;0.90;;;4.90;99.90;;;;;;5042132;28;20084;-68
2022/01/31 05:33:17;;;;;;;6.00;1.05;;;4.90;99.90;;;;;;5036678;28;20117;-68
2022/01/31 05:35:44;;;;;;;7.78;1.17;;;4.80;99.90;;;;;;5048497;28;20044;-68
2022/01/31 05:38:10;;;;;;;6.78;0.70;;;4.80;99.90;;;;;;5061959;28;20048;-68
2022/01/31 05:40:36;;;;;;;7.10;0.90;;;4.70;99.90;;;;;;5038581;28;20037;-68
2022/01/31 05:43:01;;;;;;;7.35;0.85;;;4.70;99.90;;;;;;5038795;28;20063;-68
2022/01/31 05:45:27;;;;;;;10.25;1.15;;;4.70;99.90;;;;;;5018988;28;20049;-68
2022/01/31 05:47:52;;;;;;;8.88;1.45;;;4.70;99.90;;;;;;5037806;28;20053;-68
2022/01/31 05:50:18;;;;;;;9.57;1.10;;;4.60;99.90;;;;;;5058187;28;20051;-68
2022/01/31 05:52:44;;;;;;;3.70;0.70;;;4.60;99.90;;;;;;5053677;28;20071;-68
2022/01/31 05:55:09;;;;;;;8.63;1.05;;;4.60;99.90;;;;;;5048428;28;21592;-68
2022/01/31 05:57:36;;;;;;;5.40;0.88;;;4.60;99.90;;;;;;5040740;28;20392;-68
2022/01/31 06:00:04;;;;;;;9.52;1.30;;;4.60;99.90;;;;;;5040477;28;20045;-68
2022/01/31 06:02:30;;;;;;;10.27;1.40;;;4.60;99.90;;;;;;5038750;28;20100;-68
2022/01/31 06:04:55;;;;;;;12.45;1.80;;;4.60;99.90;;;;;;5036716;28;20048;-68
2022/01/31 06:07:21;;;;;;;4.93;1.27;;;4.70;99.90;;;;;;5037359;28;20114;-68
2022/01/31 06:09:46;;;;;;;7.78;1.35;;;4.60;99.90;;;;;;5040054;28;20131;-68
2022/01/31 06:12:12;;;;;;;9.27;1.73;;;4.70;99.90;;;;;;5060164;28;20423;-68
2022/01/31 06:14:39;;;;;;;6.88;1.00;;;4.70;99.90;;;;;;5042926;28;20078;-68
2022/01/31 06:17:05;;;;;;;8.65;1.40;;;4.70;99.90;;;;;;5046644;28;20122;-68
2022/01/31 06:19:30;;;;;;;4.95;1.10;;;4.70;99.90;;;;;;5049608;28;20438;-68
2022/01/31 06:21:56;;;;;;;9.10;1.50;;;4.70;99.90;;;;;;5043397;28;20083;-68
2022/01/31 06:24:22;;;;;;;12.10;1.50;;;4.70;99.90;;;;;;5064269;28;20036;-69
2022/01/31 06:26:48;;;;;;;17.88;2.05;;;4.70;99.90;;;;;;5045676;28;20514;-68
2022/01/31 06:29:14;;;;;;;9.13;1.10;;;4.70;99.90;;;;;;5046787;28;20080;-68
2022/01/31 06:31:40;;;;;;;9.60;1.60;;;4.70;99.90;;;;;;5042774;28;20492;-68
2022/01/31 06:34:05;;;;;;;9.02;1.40;;;4.70;99.90;;;;;;5047418;28;20470;-68
2022/01/31 06:36:31;;;;;;;10.70;1.60;;;4.70;99.90;;;;;;5042864;28;20045;-69
2022/01/31 06:38:57;;;;;;;11.77;2.08;;;4.70;99.90;;;;;;5048573;28;20495;-68
2022/01/31 06:41:23;;;;;;;9.45;1.83;;;4.70;99.90;;;;;;5035204;28;20037;-68
2022/01/31 06:43:51;;;;;;;9.32;1.58;;;5.30;99.90;;;;;;5049750;28;20060;-68
2022/01/31 06:46:17;;;;;;;12.52;1.50;;;4.70;99.90;;;;;;5039173;28;20033;-69
2022/01/31 06:48:42;;;;;;;12.73;1.60;;;4.70;99.90;;;;;;5033874;28;20049;-69
2022/01/31 06:51:08;;;;;;;7.22;1.27;;;4.70;99.90;;;;;;5041834;28;20040;-69
2022/01/31 06:53:35;;;;;;;10.73;1.15;;;4.70;99.90;;;;;;5044792;28;20048;-70
2022/01/31 06:56:01;;;;;;;11.57;1.73;;;4.70;99.90;;;;;;5043019;28;20075;-71
2022/01/31 06:58:27;;;;;;;4.78;0.93;;;4.70;99.90;;;;;;5042941;28;20080;-71
2022/01/31 07:00:54;;;;;;;11.48;1.67;;;4.70;99.90;;;;;;5036539;28;20045;-72
2022/01/31 07:03:20;;;;;;;10.30;1.10;;;4.70;99.90;;;;;;5060336;28;20056;-72
2022/01/31 07:05:47;;;;;;;6.47;1.00;;;5.10;99.90;;;;;;5040271;28;20069;-72
2022/01/31 07:08:14;;;;;;;12.27;2.08;;;4.80;99.90;;;;;;5047757;28;20491;-72
2022/01/31 07:10:40;;;;;;;7.18;0.85;;;4.80;99.90;;;;;;5040812;28;20106;-73
2022/01/31 07:13:13;;;;;;;8.55;0.70;;;4.80;99.90;;;;;;5042148;28;20057;-73
2022/01/31 07:15:39;;;;;;;9.52;1.20;;;4.80;99.90;;;;;;5044650;28;20072;-72
2022/01/31 07:18:05;;;;;;;6.15;0.80;;;4.80;99.90;;;;;;5038657;28;20075;-76
2022/01/31 07:20:38;;;;;;;7.30;1.08;;;4.80;99.90;;;;;;5034811;28;20095;-71
2022/01/31 07:23:09;;;;;;;6.63;0.80;;;4.90;99.90;;;;;;5042763;28;20048;-76
2022/01/31 07:25:35;;;;;;;11.13;0.82;;;4.90;99.90;;;;;;5044420;28;20041;-76
2022/01/31 07:28:04;;;;;;;8.95;0.90;;;4.90;99.90;;;;;;5060987;28;20087;-76
2022/01/31 07:30:29;;;;;;;9.75;1.40;;;4.90;99.90;;;;;;5068555;28;20048;-76
2022/01/31 07:32:55;;;;;;;16.13;1.75;;;4.90;99.90;;;;;;5050552;28;20391;-77
2022/01/31 07:35:21;;;;;;;13.68;1.63;;;4.90;99.90;;;;;;5041912;28;20093;-70
2022/01/31 07:37:47;;;;;;;5.90;1.65;;;4.90;99.90;;;;;;5043797;28;20037;-70
2022/01/31 07:40:13;;;;;;;9.82;1.45;;;4.90;99.90;;;;;;5045498;28;20523;-71
2022/01/31 07:42:38;;;;;;;10.60;1.65;;;4.90;99.90;;;;;;5052223;28;20044;-71
2022/01/31 07:45:04;;;;;;;8.50;1.15;;;4.90;99.90;;;;;;5040933;28;20132;-71
2022/01/31 07:47:30;;;;;;;10.65;1.75;;;4.90;99.90;;;;;;5040115;28;20049;-71
2022/01/31 07:49:57;;;;;;;14.27;2.53;;;4.90;99.90;;;;;;5038852;28;20056;-70
2022/01/31 07:52:23;;;;;;;12.20;1.25;;;4.90;99.90;;;;;;5054046;28;20040;-70
2022/01/31 07:54:48;;;;;;;11.02;1.45;;;4.90;99.90;;;;;;5038165;28;20078;-70
2022/01/31 07:57:17;;;;;;;12.85;1.30;;;4.90;99.90;;;;;;5042874;28;20115;-71
2022/01/31 07:59:43;;;;;;;12.27;1.40;;;4.90;99.90;;;;;;5046224;28;20128;-70
2022/01/31 08:02:08;;;;;;;8.93;1.30;;;4.90;99.90;;;;;;5037048;28;20159;-71
2022/01/31 08:04:34;;;;;;;13.60;2.13;;;5.00;99.90;;;;;;5049755;28;20225;-72
2022/01/31 08:06:59;;;;;;;14.52;1.35;;;4.90;99.90;;;;;;5037395;28;20037;-71
2022/01/31 08:09:25;;;;;;;10.30;1.23;;;5.00;99.90;;;;;;5029014;28;20136;-71
2022/01/31 08:11:50;;;;;;;14.10;1.35;;;4.90;99.90;;;;;;5035601;28;20155;-70
2022/01/31 08:14:17;;;;;;;7.88;1.25;;;5.00;99.90;;;;;;5041085;28;20089;-70
2022/01/31 08:16:44;;;;;;;9.38;1.42;;;5.00;99.90;;;;;;5031324;28;20171;-70
2022/01/31 08:19:10;;;;;;;13.27;1.67;;;5.10;99.90;;;;;;5025922;28;20736;-71
2022/01/31 08:21:36;;;;;;;14.82;1.23;;;4.90;99.90;;;;;;5038298;28;20099;-70
2022/01/31 08:24:02;;;;;;;14.77;2.28;;;4.90;99.90;;;;;;5035007;28;20515;-70
2022/01/31 08:26:29;;;;;;;13.25;1.52;;;4.90;99.90;;;;;;5054561;28;20399;-70
2022/01/31 08:28:58;;;;;;;7.78;1.00;;;4.90;99.90;;;;;;5036908;28;20053;-70
2022/01/31 08:31:36;;;;;;;6.63;0.98;;;4.90;99.90;;;;;;5034505;28;21296;-70
2022/01/31 08:36:40;;;;;;;7.70;1.27;;;4.90;99.90;;;;;;5058478;28;20126;-71
2022/01/31 08:39:18;;;;;;;10.35;1.25;;;4.90;99.90;;;;;;5034085;28;20052;-71
2022/01/31 08:41:47;;;;;;;10.90;1.30;;;4.90;99.90;;;;;;5033236;28;20060;-71
2022/01/31 08:44:15;;;;;;;14.00;1.33;;;5.00;99.90;;;;;;5039539;28;20052;-71
2022/01/31 08:46:41;;;;;;;9.70;1.33;;;5.00;99.90;;;;;;5038138;28;20665;-70
2022/01/31 08:49:08;;;;;;;6.68;1.10;;;5.00;99.90;;;;;;5034494;28;20141;-71
2022/01/31 08:51:34;;;;;;;9.70;1.58;;;5.10;99.90;;;;;;5039890;28;21336;-71
2022/01/31 08:54:00;;;;;;;7.07;1.00;;;5.10;99.90;;;;;;5039026;28;20053;-70
2022/01/31 08:56:25;;;;;;;8.52;1.23;;;5.10;99.90;;;;;;5036352;28;20156;-71
2022/01/31 08:58:52;;;;;;;8.23;1.23;;;5.10;99.90;;;;;;5039271;28;20183;-71
2022/01/31 09:01:21;;;;;;;8.57;1.42;;;5.20;99.90;;;;;;5030873;28;20051;-70
2022/01/31 09:06:18;;;;;;;9.02;1.30;;;5.20;99.90;;;;;;5057120;28;20048;-71
2022/01/31 09:08:44;;;;;;;11.05;1.65;;;5.20;99.90;;;;;;5037506;28;20139;-71
2022/01/31 09:11:10;;;;;;;7.32;1.13;;;5.20;99.90;;;;;;5032142;28;20477;-71
2022/01/31 09:13:36;;;;;;;6.00;1.50;;;5.30;99.90;;;;;;5057766;28;20054;-70
2022/01/31 09:16:03;;;;;;;12.13;1.48;;;5.30;99.90;;;;;;5036764;28;20175;-71
2022/01/31 09:18:29;;;;;;;7.60;1.38;;;5.40;99.90;;;;;;5037724;28;20105;-71
2022/01/31 09:20:55;;;;;;;13.25;1.40;;;5.40;99.90;;;;;;5028542;28;20066;-71
2022/01/31 09:23:21;;;;;;;13.07;2.05;;;5.40;99.90;;;;;;5034157;28;20052;-71
2022/01/31 09:25:47;;;;;;;8.32;1.52;;;5.40;99.90;;;;;;5039100;28;20044;-71
2022/01/31 09:28:14;;;;;;;9.95;1.58;;;5.40;99.90;;;;;;5034256;28;20063;-71
2022/01/31 09:30:42;;;;;;;13.30;1.63;;;5.40;99.90;;;;;;5028833;28;20056;-70
2022/01/31 09:33:09;;;;;;;11.57;1.90;;;5.50;99.90;;;;;;5032175;28;20056;-72
2022/01/31 09:35:35;;;;;;;7.85;1.17;;;5.50;99.90;;;;;;5039449;28;20045;-70
2022/01/31 09:38:01;;;;;;;3.45;0.77;;;5.60;99.90;;;;;;5034957;28;20041;-71
2022/01/31 09:40:27;;;;;;;6.10;1.00;;;5.60;99.90;;;;;;5028354;28;20107;-70
2022/01/31 09:43:39;;;;;;;16.30;1.85;;;5.60;99.90;;;;;;5035073;28;20052;-70
2022/01/31 09:46:15;;;;;;;9.77;1.20;;;5.70;99.90;;;;;;5032295;28;20053;-70
2022/01/31 09:48:43;;;;;;;9.25;1.00;;;5.70;99.90;;;;;;5034102;28;20071;-70
2022/01/31 09:51:18;;;;;;;12.77;1.38;;;5.70;99.90;;;;;;5029907;28;20044;-70
2022/01/31 09:53:48;;;;;;;8.52;1.05;;;5.80;99.90;;;;;;5033137;28;20402;-70
2022/01/31 09:56:19;;;;;;;6.63;0.95;;;5.80;99.90;;;;;;5034203;28;20045;-70
2022/01/31 09:58:45;;;;;;;7.10;0.88;;;5.80;99.90;;;;;;5037150;28;20060;-71
2022/01/31 10:01:15;;;;;;;7.35;0.90;;;5.80;99.90;;;;;;5026067;28;20032;-73
2022/01/31 10:03:45;;;;;;;15.05;1.45;;;5.80;99.90;;;;;;5029675;28;20765;-71
2022/01/31 10:06:22;;;;;;;4.00;0.73;;;5.90;99.90;;;;;;5035321;28;20049;-71
2022/01/31 10:08:58;;;;;;;9.18;1.00;;;6.00;99.90;;;;;;5032447;28;20055;-70
2022/01/31 10:11:28;;;;;;;5.90;0.95;;;6.30;99.90;;;;;;5030713;28;20052;-71
2022/01/31 10:16:44;;;;;;;;;;;6.20;99.90;;;;;;5035224;28;20049;-71
2022/01/31 10:19:11;;;;;;;8.55;1.10;;;6.30;99.90;;;;;;5022133;28;20043;-71
2022/01/31 10:22:02;;;;;;;11.18;1.25;;;6.40;99.90;;;;;;5034661;28;20083;-70
2022/01/31 10:24:29;;;;;;;10.70;1.10;;;6.40;99.90;;;;;;5035739;28;20053;-71
2022/01/31 10:26:56;;;;;;;8.57;1.38;;;6.50;99.90;;;;;;5034463;28;20056;-71
2022/01/31 10:29:23;;;;;;;7.18;1.00;;;6.60;99.90;;;;;;5028677;28;20065;-71
2022/01/31 10:31:55;;;;;;;10.40;1.92;;;6.60;99.90;;;;;;5033465;28;20080;-71
2022/01/31 10:34:24;;;;;;;9.82;1.42;;;6.70;99.90;;;;;;5034824;28;20160;-71
2022/01/31 10:36:49;;;;;;;10.55;1.20;;;6.70;99.90;;;;;;5033570;28;20057;-71
2022/01/31 10:43:24;;;;;;;11.88;1.35;;;6.70;99.90;;;;;;5028310;28;20049;-71
2022/01/31 10:53:23;;;;;;;13.55;1.15;;;6.80;99.90;;;;;;4998844;28;20512;-72
2022/01/31 10:55:53;;;;;;;8.57;0.93;;;6.80;99.90;;;;;;5032441;28;20049;-71
2022/01/31 10:58:19;;;;;;;12.95;1.80;;;6.80;99.90;;;;;;5036075;28;20055;-70
2022/01/31 11:00:45;;;;;;;6.97;1.10;;;6.80;99.90;;;;;;5025510;28;20045;-73
2022/01/31 11:03:32;;;;;;;15.82;1.73;;;6.70;99.90;;;;;;5033813;28;20386;-71
2022/01/31 11:06:04;;;;;;;8.77;1.20;;;6.70;99.90;;;;;;5037884;28;20144;-70
2022/01/31 11:08:30;;;;;;;14.70;1.48;;;6.70;99.90;;;;;;5033269;28;20145;-71
2022/01/31 11:10:59;;;;;;;11.07;1.48;;;6.70;99.90;;;;;;5023620;28;20655;-71
2022/01/31 11:13:26;;;;;;;15.10;1.75;;;6.80;99.90;;;;;;5034674;28;20156;-71
2022/01/31 11:15:54;;;;;;;11.05;1.65;;;6.80;99.90;;;;;;5047825;28;20063;-71
2022/01/31 11:18:21;;;;;;;10.27;1.15;;;6.90;99.90;;;;;;5033808;28;20033;-73
2022/01/31 11:20:49;;;;;;;12.32;1.77;;;7.10;99.90;;;;;;5022896;28;20068;-71
2022/01/31 11:23:18;;;;;;;9.48;1.70;;;7.30;99.90;;;;;;5030767;28;20111;-71
2022/01/31 11:25:50;;;;;;;12.57;1.42;;;7.40;99.90;;;;;;5030926;28;20079;-71
2022/01/31 11:28:17;;;;;;;16.08;2.10;;;7.50;99.90;;;;;;5030688;28;20060;-71
2022/01/31 11:30:43;;;;;;;12.40;1.25;;;7.50;99.90;;;;;;5025032;28;20060;-71
2022/01/31 11:33:10;;;;;;;17.95;1.77;;;7.60;99.90;;;;;;5032800;28;20041;-71
2022/01/31 11:35:36;;;;;;;10.68;1.55;;;7.70;99.90;;;;;;5038029;28;20045;-71
2022/01/31 11:38:02;;;;;;;13.68;2.10;;;7.70;99.90;;;;;;5035142;28;20064;-71
2022/01/31 11:40:27;;;;;;;11.65;1.77;;;7.70;99.90;;;;;;5024384;28;20166;-71
2022/01/31 11:42:54;;;;;;;11.40;1.52;;;7.70;99.90;;;;;;5032650;28;20136;-71
2022/01/31 11:45:34;;;;;;;13.30;2.30;;;7.70;99.90;;;;;;5032168;28;20127;-71
2022/01/31 11:48:08;;;;;;;10.70;2.20;;;7.80;99.90;;;;;;5035055;28;20052;-70
2022/01/31 11:50:43;;;;;;;10.15;1.95;;;7.90;99.90;;;;;;5030688;28;20587;-71
2022/01/31 11:53:09;;;;;;;10.82;1.70;;;7.90;99.90;;;;;;5031176;28;20037;-71
2022/01/31 11:55:38;;;;;;;16.90;1.85;;;8.10;99.90;;;;;;5038621;28;20049;-71
2022/01/31 11:58:09;;;;;;;13.02;1.50;;;8.10;99.90;;;;;;5036856;28;20106;-71
2022/01/31 12:00:37;;;;;;;21.65;3.22;;;8.10;99.90;;;;;;5027248;28;20140;-71
2022/01/31 12:03:09;;;;;;;13.60;2.22;;;8.10;99.90;;;;;;5036553;28;20053;-71
2022/01/31 12:05:36;;;;;;;17.17;2.50;;;8.00;99.90;;;;;;5035551;28;20068;-71
2022/01/31 12:08:08;;;;;;;16.88;2.25;;;8.00;99.90;;;;;;5036739;28;20049;-70
2022/01/31 12:10:44;;;;;;;15.13;1.92;;;7.90;99.90;;;;;;5030583;28;20053;-71
2022/01/31 12:13:50;;;;;;;22.15;2.20;;;7.90;99.90;;;;;;5036721;28;20033;-71
2022/01/31 12:16:44;;;;;;;14.10;2.03;;;7.90;99.90;;;;;;5033900;28;20064;-70
2022/01/31 12:22:08;;;;;;;16.50;2.10;;;7.90;99.90;;;;;;5038635;28;20171;-70
2022/01/31 12:24:43;;;;;;;14.93;1.98;;;7.90;99.90;;;;;;5035425;28;20057;-71
2022/01/31 12:27:26;;;;;;;16.35;1.95;;;7.80;99.90;;;;;;5037149;28;20037;-71
2022/01/31 12:29:56;;;;;;;19.60;2.35;;;7.80;99.90;;;;;;5049900;28;20051;-71
2022/01/31 12:32:23;;;;;;;12.57;1.60;;;7.80;99.90;;;;;;5056328;28;20856;-71
2022/01/31 12:35:05;;;;;;;14.75;2.03;;;7.80;99.90;;;;;;5037815;28;20534;-71
2022/01/31 12:37:33;;;;;;;20.38;2.22;;;7.90;99.90;;;;;;5058155;28;20068;-71
2022/01/31 12:40:12;;;;;;;17.67;2.00;;;7.90;99.90;;;;;;5050945;28;20044;-71
2022/01/31 12:45:39;;;;;;;15.35;2.28;;;7.80;99.90;;;;;;5053175;28;20087;-76
2022/01/31 12:48:08;;;;;;;14.70;1.92;;;7.70;99.90;;;;;;5038752;28;20935;-79
2022/01/31 12:50:58;;;;;;;18.50;2.42;;;7.70;99.90;;;;;;5033950;28;20052;-79
2022/01/31 12:53:29;;;;;;;14.88;1.55;;;7.70;99.90;;;;;;5037423;28;20408;-79
2022/01/31 12:55:59;;;;;;;11.77;1.98;;;7.70;99.90;;;;;;5037755;28;20060;-79
2022/01/31 12:58:38;;;;;;;7.78;1.33;;;7.60;99.90;;;;;;5037589;28;20056;-79
2022/01/31 13:01:21;;;;;;;12.77;1.60;;;7.70;99.90;;;;;;5031020;28;20086;-79
2022/01/31 13:03:55;;;;;;;11.20;1.88;;;7.70;99.90;;;;;;5035462;28;20043;-79
2022/01/31 13:06:44;;;;;;;16.48;2.00;;;7.70;99.90;;;;;;5038520;28;20051;-79
2022/01/31 13:09:17;;;;;;;10.15;1.95;;;7.70;99.90;;;;;;5028605;28;20194;-79
2022/01/31 13:11:45;;;;;;;13.05;1.98;;;7.70;99.90;;;;;;5054151;28;20037;-79
2022/01/31 13:14:22;;;;;;;17.35;2.20;;;7.70;99.90;;;;;;5038221;28;20495;-76
2022/01/31 13:19:34;;;;;;;15.52;1.85;;;7.80;99.90;;;;;;5025932;28;20083;-75
2022/01/31 13:22:32;;;;;;;14.10;2.20;;;7.70;99.90;;;;;;5038520;28;20117;-75